sensor_id;sensor_type;location;lat;lon;timestamp;pressure;altitude;pressure_sealevel;temperature;humidity
49515;BME280;35415;47.870;16.058;2023-06-14T00:00:50;97049.84;;;12.57;85.68
49515;BME280;35415;47.870;16.058;2023-06-14T00:03:18;97052.09;;;12.50;86.49
49515;BME280;35415;47.870;16.058;2023-06-14T00:05:47;97021.53;;;12.30;86.48
49515;BME280;35415;47.870;16.058;2023-06-14T00:08:15;97047.72;;;12.54;86.16
49515;BME280;35415;47.870;16.058;2023-06-14T00:10:46;97055.31;;;12.52;86.43
49515;BME280;35415;47.870;16.058;2023-06-14T00:13:13;97056.13;;;12.52;88.28
49515;BME280;35415;47.870;16.058;2023-06-14T00:15:42;97052.91;;;12.50;87.17
49515;BME280;35415;47.870;16.058;2023-06-14T00:18:09;97061.00;;;12.50;87.22
49515;BME280;35415;47.870;16.058;2023-06-14T00:20:37;97054.50;;;12.51;87.07
49515;BME280;35415;47.870;16.058;2023-06-14T00:23:05;97059.09;;;12.51;87.22
49515;BME280;35415;47.870;16.058;2023-06-14T00:25:32;97050.19;;;12.50;87.91
49515;BME280;35415;47.870;16.058;2023-06-14T00:28:01;97050.50;;;12.49;87.67
49515;BME280;35415;47.870;16.058;2023-06-14T00:30:32;97052.38;;;12.48;88.14
49515;BME280;35415;47.870;16.058;2023-06-14T00:32:59;97051.06;;;12.46;88.03
49515;BME280;35415;47.870;16.058;2023-06-14T00:35:26;97054.56;;;12.46;88.01
49515;BME280;35415;47.870;16.058;2023-06-14T00:37:54;97034.38;;;12.39;88.35
49515;BME280;35415;47.870;16.058;2023-06-14T00:40:22;97025.84;;;12.31;88.40
49515;BME280;35415;47.870;16.058;2023-06-14T00:42:52;97009.75;;;12.21;88.48
49515;BME280;35415;47.870;16.058;2023-06-14T00:45:21;97042.97;;;12.46;88.26
49515;BME280;35415;47.870;16.058;2023-06-14T00:47:49;97034.06;;;12.45;88.43
49515;BME280;35415;47.870;16.058;2023-06-14T00:50:20;97031.91;;;12.42;88.10
49515;BME280;35415;47.870;16.058;2023-06-14T00:52:49;97032.72;;;12.43;88.07
49515;BME280;35415;47.870;16.058;2023-06-14T00:55:18;97029.47;;;12.46;88.09
49515;BME280;35415;47.870;16.058;2023-06-14T00:57:45;97018.97;;;12.44;88.93
49515;BME280;35415;47.870;16.058;2023-06-14T01:00:13;97010.09;;;12.44;88.06
49515;BME280;35415;47.870;16.058;2023-06-14T01:02:42;97012.72;;;12.49;88.81
49515;BME280;35415;47.870;16.058;2023-06-14T01:05:10;97009.72;;;12.50;89.08
49515;BME280;35415;47.870;16.058;2023-06-14T01:07:45;97013.25;;;12.51;88.62
49515;BME280;35415;47.870;16.058;2023-06-14T01:10:24;97011.91;;;12.48;88.27
49515;BME280;35415;47.870;16.058;2023-06-14T01:12:58;97006.22;;;12.50;88.17
49515;BME280;35415;47.870;16.058;2023-06-14T01:15:30;97014.03;;;12.51;88.81
49515;BME280;35415;47.870;16.058;2023-06-14T01:18:00;97011.63;;;12.50;88.59
49515;BME280;35415;47.870;16.058;2023-06-14T01:20:31;96996.06;;;12.42;88.00
49515;BME280;35415;47.870;16.058;2023-06-14T01:23:04;96976.78;;;12.29;87.93
49515;BME280;35415;47.870;16.058;2023-06-14T01:25:31;97023.38;;;12.59;88.57
49515;BME280;35415;47.870;16.058;2023-06-14T01:28:32;97016.94;;;12.60;87.15
49515;BME280;35415;47.870;16.058;2023-06-14T01:31:02;97011.69;;;12.45;88.03
49515;BME280;35415;47.870;16.058;2023-06-14T01:33:31;97018.91;;;12.49;88.43
49515;BME280;35415;47.870;16.058;2023-06-14T01:36:00;97024.47;;;12.58;88.14
49515;BME280;35415;47.870;16.058;2023-06-14T01:38:30;97020.97;;;12.57;88.25
49515;BME280;35415;47.870;16.058;2023-06-14T01:40:58;97013.97;;;12.56;88.80
49515;BME280;35415;47.870;16.058;2023-06-14T01:43:29;97012.94;;;12.52;88.56
49515;BME280;35415;47.870;16.058;2023-06-14T01:45:57;97019.38;;;12.56;88.50
49515;BME280;35415;47.870;16.058;2023-06-14T01:48:27;97016.69;;;12.56;88.55
49515;BME280;35415;47.870;16.058;2023-06-14T01:50:54;97012.72;;;12.49;88.46
49515;BME280;35415;47.870;16.058;2023-06-14T01:53:21;96999.84;;;12.41;88.34
49515;BME280;35415;47.870;16.058;2023-06-14T01:55:51;96992.84;;;12.40;88.41
49515;BME280;35415;47.870;16.058;2023-06-14T01:58:19;97021.56;;;12.54;88.44
49515;BME280;35415;47.870;16.058;2023-06-14T02:00:47;96999.31;;;12.39;89.04
49515;BME280;35415;47.870;16.058;2023-06-14T02:03:15;97009.16;;;12.53;88.70
49515;BME280;35415;47.870;16.058;2023-06-14T02:05:45;97009.09;;;12.58;88.05
49515;BME280;35415;47.870;16.058;2023-06-14T02:08:12;97012.66;;;12.54;88.96
49515;BME280;35415;47.870;16.058;2023-06-14T02:10:40;97005.50;;;12.44;88.88
49515;BME280;35415;47.870;16.058;2023-06-14T02:13:09;97019.72;;;12.50;89.31
49515;BME280;35415;47.870;16.058;2023-06-14T02:15:37;97020.53;;;12.50;89.49
49515;BME280;35415;47.870;16.058;2023-06-14T02:18:07;97015.19;;;12.45;89.16
49515;BME280;35415;47.870;16.058;2023-06-14T02:20:34;97028.09;;;12.48;89.38
49515;BME280;35415;47.870;16.058;2023-06-14T02:23:01;97032.41;;;12.49;89.71
49515;BME280;35415;47.870;16.058;2023-06-14T02:25:29;97010.09;;;12.44;90.31
49515;BME280;35415;47.870;16.058;2023-06-14T02:27:57;97014.91;;;12.47;90.09
49515;BME280;35415;47.870;16.058;2023-06-14T02:30:26;97017.59;;;12.47;90.40
49515;BME280;35415;47.870;16.058;2023-06-14T02:32:53;97005.00;;;12.37;90.48
49515;BME280;35415;47.870;16.058;2023-06-14T02:35:20;96986.41;;;12.35;90.56
49515;BME280;35415;47.870;16.058;2023-06-14T02:37:50;97006.53;;;12.48;92.01
49515;BME280;35415;47.870;16.058;2023-06-14T02:40:18;96990.66;;;12.42;91.42
49515;BME280;35415;47.870;16.058;2023-06-14T02:42:45;97012.38;;;12.55;90.70
49515;BME280;35415;47.870;16.058;2023-06-14T02:45:12;97007.78;;;12.56;90.68
49515;BME280;35415;47.870;16.058;2023-06-14T02:47:42;97004.00;;;12.57;91.12
49515;BME280;35415;47.870;16.058;2023-06-14T02:50:09;96995.34;;;12.60;89.96
49515;BME280;35415;47.870;16.058;2023-06-14T02:52:36;96999.66;;;12.61;92.11
49515;BME280;35415;47.870;16.058;2023-06-14T02:55:04;97006.38;;;12.63;90.71
49515;BME280;35415;47.870;16.058;2023-06-14T02:57:31;96982.19;;;12.53;91.35
49515;BME280;35415;47.870;16.058;2023-06-14T02:59:59;96996.88;;;12.66;91.86
49515;BME280;35415;47.870;16.058;2023-06-14T03:02:26;96987.41;;;12.69;91.75
49515;BME280;35415;47.870;16.058;2023-06-14T03:04:54;96997.09;;;12.70;93.04
49515;BME280;35415;47.870;16.058;2023-06-14T03:07:27;97003.03;;;12.72;93.73
49515;BME280;35415;47.870;16.058;2023-06-14T03:09:55;97005.13;;;12.75;92.77
49515;BME280;35415;47.870;16.058;2023-06-14T03:12:23;97007.91;;;12.70;94.25
49515;BME280;35415;47.870;16.058;2023-06-14T03:14:50;97020.31;;;12.71;94.22
49515;BME280;35415;47.870;16.058;2023-06-14T03:17:19;97035.41;;;12.72;94.86
49515;BME280;35415;47.870;16.058;2023-06-14T03:19:47;97039.72;;;12.73;98.54
49515;BME280;35415;47.870;16.058;2023-06-14T03:22:16;97033.50;;;12.72;98.69
49515;BME280;35415;47.870;16.058;2023-06-14T03:24:47;97020.44;;;12.60;100.00
49515;BME280;35415;47.870;16.058;2023-06-14T03:27:20;97038.97;;;12.67;100.00
49515;BME280;35415;47.870;16.058;2023-06-14T03:29:48;97047.06;;;12.67;100.00
49515;BME280;35415;47.870;16.058;2023-06-14T03:32:15;97024.59;;;12.48;100.00
49515;BME280;35415;47.870;16.058;2023-06-14T03:34:46;97046.06;;;12.58;100.00
49515;BME280;35415;47.870;16.058;2023-06-14T03:37:15;97026.81;;;12.41;100.00
49515;BME280;35415;47.870;16.058;2023-06-14T03:39:48;97049.69;;;12.48;100.00
49515;BME280;35415;47.870;16.058;2023-06-14T03:42:15;97045.66;;;12.46;100.00
49515;BME280;35415;47.870;16.058;2023-06-14T03:44:46;97050.81;;;12.42;100.00
49515;BME280;35415;47.870;16.058;2023-06-14T03:47:14;97044.47;;;12.28;100.00
49515;BME280;35415;47.870;16.058;2023-06-14T03:49:41;97025.34;;;12.24;100.00
49515;BME280;35415;47.870;16.058;2023-06-14T03:52:11;97044.94;;;12.35;100.00
49515;BME280;35415;47.870;16.058;2023-06-14T03:54:39;97039.03;;;12.33;100.00
49515;BME280;35415;47.870;16.058;2023-06-14T03:57:10;97048.22;;;12.32;100.00
49515;BME280;35415;47.870;16.058;2023-06-14T03:59:38;97052.56;;;12.28;100.00
49515;BME280;35415;47.870;16.058;2023-06-14T04:02:06;97050.72;;;12.23;100.00
49515;BME280;35415;47.870;16.058;2023-06-14T04:04:34;97066.56;;;12.30;100.00
49515;BME280;35415;47.870;16.058;2023-06-14T04:07:02;97072.28;;;12.23;100.00
49515;BME280;35415;47.870;16.058;2023-06-14T04:09:30;97067.75;;;12.19;100.00
49515;BME280;35415;47.870;16.058;2023-06-14T04:11:58;97073.94;;;12.19;100.00
49515;BME280;35415;47.870;16.058;2023-06-14T04:14:27;97073.66;;;12.21;100.00
49515;BME280;35415;47.870;16.058;2023-06-14T04:16:54;97090.56;;;12.31;100.00
49515;BME280;35415;47.870;16.058;2023-06-14T04:19:21;97053.00;;;12.06;100.00
49515;BME280;35415;47.870;16.058;2023-06-14T04:21:49;97092.47;;;12.31;100.00
49515;BME280;35415;47.870;16.058;2023-06-14T04:24:16;97076.59;;;12.24;100.00
49515;BME280;35415;47.870;16.058;2023-06-14T04:26:44;97068.78;;;12.23;100.00
49515;BME280;35415;47.870;16.058;2023-06-14T04:29:14;97085.69;;;12.33;100.00
49515;BME280;35415;47.870;16.058;2023-06-14T04:31:44;97059.69;;;12.14;100.00
49515;BME280;35415;47.870;16.058;2023-06-14T04:34:11;97076.06;;;12.22;100.00
49515;BME280;35415;47.870;16.058;2023-06-14T04:36:42;97101.06;;;12.33;100.00
49515;BME280;35415;47.870;16.058;2023-06-14T04:39:16;97090.03;;;12.29;100.00
49515;BME280;35415;47.870;16.058;2023-06-14T04:41:44;97042.88;;;11.93;100.00
49515;BME280;35415;47.870;16.058;2023-06-14T04:44:19;97037.81;;;11.86;100.00
49515;BME280;35415;47.870;16.058;2023-06-14T04:46:57;97031.31;;;11.87;100.00
49515;BME280;35415;47.870;16.058;2023-06-14T04:49:31;97004.19;;;11.79;100.00
49515;BME280;35415;47.870;16.058;2023-06-14T04:52:04;97053.50;;;12.13;100.00
49515;BME280;35415;47.870;16.058;2023-06-14T04:54:53;97041.47;;;12.00;100.00
49515;BME280;35415;47.870;16.058;2023-06-14T04:57:21;97087.25;;;12.40;100.00
49515;BME280;35415;47.870;16.058;2023-06-14T04:59:51;97061.53;;;12.18;100.00
49515;BME280;35415;47.870;16.058;2023-06-14T05:02:23;97049.97;;;12.18;100.00
49515;BME280;35415;47.870;16.058;2023-06-14T05:04:53;97027.94;;;12.05;100.00
49515;BME280;35415;47.870;16.058;2023-06-14T05:07:26;97015.66;;;11.94;100.00
49515;BME280;35415;47.870;16.058;2023-06-14T05:09:54;97048.69;;;12.10;100.00
49515;BME280;35415;47.870;16.058;2023-06-14T05:12:22;97004.13;;;11.84;100.00
49515;BME280;35415;47.870;16.058;2023-06-14T05:14:49;97036.25;;;12.14;100.00
49515;BME280;35415;47.870;16.058;2023-06-14T05:17:22;97026.34;;;12.04;100.00
49515;BME280;35415;47.870;16.058;2023-06-14T05:19:52;97067.16;;;12.27;100.00
49515;BME280;35415;47.870;16.058;2023-06-14T05:22:23;97023.06;;;12.08;100.00
49515;BME280;35415;47.870;16.058;2023-06-14T05:24:52;97053.47;;;12.18;100.00
49515;BME280;35415;47.870;16.058;2023-06-14T05:27:23;97070.03;;;12.35;100.00
49515;BME280;35415;47.870;16.058;2023-06-14T05:29:53;97075.00;;;12.52;100.00
49515;BME280;35415;47.870;16.058;2023-06-14T05:32:28;97119.78;;;12.82;100.00
49515;BME280;35415;47.870;16.058;2023-06-14T05:34:57;97067.25;;;12.46;100.00
49515;BME280;35415;47.870;16.058;2023-06-14T05:37:24;97121.47;;;12.73;100.00
49515;BME280;35415;47.870;16.058;2023-06-14T05:39:55;97086.81;;;12.56;100.00
49515;BME280;35415;47.870;16.058;2023-06-14T05:42:22;97128.03;;;12.91;100.00
49515;BME280;35415;47.870;16.058;2023-06-14T05:44:49;97089.09;;;12.73;100.00
49515;BME280;35415;47.870;16.058;2023-06-14T05:47:21;97131.69;;;13.05;100.00
49515;BME280;35415;47.870;16.058;2023-06-14T05:49:50;97117.09;;;13.06;100.00
49515;BME280;35415;47.870;16.058;2023-06-14T05:52:25;97061.13;;;12.64;100.00
49515;BME280;35415;47.870;16.058;2023-06-14T05:55:05;97077.97;;;12.80;100.00
49515;BME280;35415;47.870;16.058;2023-06-14T05:57:32;97056.97;;;12.77;100.00
49515;BME280;35415;47.870;16.058;2023-06-14T05:59:59;97064.41;;;12.85;100.00
49515;BME280;35415;47.870;16.058;2023-06-14T06:02:31;97057.63;;;12.87;100.00
49515;BME280;35415;47.870;16.058;2023-06-14T06:05:03;97068.34;;;12.98;100.00
49515;BME280;35415;47.870;16.058;2023-06-14T06:07:31;97100.75;;;13.21;100.00
49515;BME280;35415;47.870;16.058;2023-06-14T06:09:58;97109.53;;;13.32;100.00
49515;BME280;35415;47.870;16.058;2023-06-14T06:12:27;97069.00;;;13.08;100.00
49515;BME280;35415;47.870;16.058;2023-06-14T06:14:54;97122.34;;;13.45;100.00
49515;BME280;35415;47.870;16.058;2023-06-14T06:17:22;97085.53;;;13.31;100.00
49515;BME280;35415;47.870;16.058;2023-06-14T06:19:50;97134.59;;;13.62;100.00
49515;BME280;35415;47.870;16.058;2023-06-14T06:22:22;97133.41;;;13.68;100.00
49515;BME280;35415;47.870;16.058;2023-06-14T06:24:53;97108.19;;;13.53;100.00
49515;BME280;35415;47.870;16.058;2023-06-14T06:27:21;97140.31;;;13.79;100.00
49515;BME280;35415;47.870;16.058;2023-06-14T06:29:49;97114.56;;;13.63;100.00
49515;BME280;35415;47.870;16.058;2023-06-14T06:32:21;97097.47;;;13.67;100.00
49515;BME280;35415;47.870;16.058;2023-06-14T06:34:49;97141.97;;;13.94;100.00
49515;BME280;35415;47.870;16.058;2023-06-14T06:37:22;97138.03;;;14.05;100.00
49515;BME280;35415;47.870;16.058;2023-06-14T06:39:50;97128.41;;;13.99;100.00
49515;BME280;35415;47.870;16.058;2023-06-14T06:42:21;97075.13;;;13.80;100.00
49515;BME280;35415;47.870;16.058;2023-06-14T06:44:50;97112.09;;;14.04;100.00
49515;BME280;35415;47.870;16.058;2023-06-14T06:47:24;97114.72;;;14.09;100.00
49515;BME280;35415;47.870;16.058;2023-06-14T06:49:52;97148.31;;;14.40;100.00
49515;BME280;35415;47.870;16.058;2023-06-14T06:52:36;97078.53;;;14.05;100.00
49515;BME280;35415;47.870;16.058;2023-06-14T06:55:07;97113.88;;;14.27;100.00
49515;BME280;35415;47.870;16.058;2023-06-14T06:57:39;97100.59;;;14.31;100.00
49515;BME280;35415;47.870;16.058;2023-06-14T07:00:09;97146.66;;;14.63;100.00
49515;BME280;35415;47.870;16.058;2023-06-14T07:02:38;97147.84;;;14.71;100.00
49515;BME280;35415;47.870;16.058;2023-06-14T07:05:05;97109.50;;;14.50;100.00
49515;BME280;35415;47.870;16.058;2023-06-14T07:07:35;97082.88;;;14.38;100.00
49515;BME280;35415;47.870;16.058;2023-06-14T07:10:03;97148.59;;;14.90;100.00
49515;BME280;35415;47.870;16.058;2023-06-14T07:12:31;97150.13;;;14.96;100.00
49515;BME280;35415;47.870;16.058;2023-06-14T07:15:05;97132.66;;;14.89;100.00
49515;BME280;35415;47.870;16.058;2023-06-14T07:17:33;97159.47;;;15.04;100.00
49515;BME280;35415;47.870;16.058;2023-06-14T07:20:02;97160.41;;;15.13;100.00
49515;BME280;35415;47.870;16.058;2023-06-14T07:22:35;97162.06;;;15.09;100.00
49515;BME280;35415;47.870;16.058;2023-06-14T07:25:11;97105.78;;;14.79;100.00
49515;BME280;35415;47.870;16.058;2023-06-14T07:27:40;97113.59;;;14.94;100.00
49515;BME280;35415;47.870;16.058;2023-06-14T07:30:10;97077.66;;;14.74;100.00
49515;BME280;35415;47.870;16.058;2023-06-14T07:32:38;97132.19;;;15.14;100.00
49515;BME280;35415;47.870;16.058;2023-06-14T07:35:07;97120.47;;;15.19;100.00
49515;BME280;35415;47.870;16.058;2023-06-14T07:38:02;97172.19;;;15.63;100.00
49515;BME280;35415;47.870;16.058;2023-06-14T07:40:31;97090.03;;;15.22;100.00
49515;BME280;35415;47.870;16.058;2023-06-14T07:43:00;97071.38;;;15.20;100.00
49515;BME280;35415;47.870;16.058;2023-06-14T07:45:31;97114.81;;;15.56;100.00
49515;BME280;35415;47.870;16.058;2023-06-14T07:47:59;97089.31;;;15.44;100.00
49515;BME280;35415;47.870;16.058;2023-06-14T07:50:26;97112.75;;;15.67;100.00
49515;BME280;35415;47.870;16.058;2023-06-14T07:52:58;97129.47;;;15.83;97.37
49515;BME280;35415;47.870;16.058;2023-06-14T07:55:34;97174.31;;;16.16;100.00
49515;BME280;35415;47.870;16.058;2023-06-14T07:58:05;97068.44;;;15.58;100.00
49515;BME280;35415;47.870;16.058;2023-06-14T08:00:33;97141.97;;;16.06;95.03
49515;BME280;35415;47.870;16.058;2023-06-14T08:03:02;97081.88;;;15.77;92.05
49515;BME280;35415;47.870;16.058;2023-06-14T08:05:32;97077.97;;;15.83;98.17
49515;BME280;35415;47.870;16.058;2023-06-14T08:08:03;97132.06;;;16.24;98.33
49515;BME280;35415;47.870;16.058;2023-06-14T08:10:31;97127.34;;;16.30;96.71
49515;BME280;35415;47.870;16.058;2023-06-14T08:13:13;97062.94;;;15.99;95.60
49515;BME280;35415;47.870;16.058;2023-06-14T08:15:43;97099.69;;;16.28;91.89
49515;BME280;35415;47.870;16.058;2023-06-14T08:18:27;97129.13;;;16.57;94.46
49515;BME280;35415;47.870;16.058;2023-06-14T08:21:13;97114.44;;;16.58;92.01
49515;BME280;35415;47.870;16.058;2023-06-14T08:23:54;97142.16;;;16.91;92.91
49515;BME280;35415;47.870;16.058;2023-06-14T08:26:27;97094.91;;;16.69;95.38
49515;BME280;35415;47.870;16.058;2023-06-14T08:29:20;97176.72;;;17.30;89.52
49515;BME280;35415;47.870;16.058;2023-06-14T08:31:51;97121.94;;;17.05;92.23
49515;BME280;35415;47.870;16.058;2023-06-14T08:34:25;97126.31;;;17.15;94.50
49515;BME280;35415;47.870;16.058;2023-06-14T08:36:55;97114.91;;;17.13;96.18
49515;BME280;35415;47.870;16.058;2023-06-14T08:39:24;97094.97;;;17.18;94.51
49515;BME280;35415;47.870;16.058;2023-06-14T08:41:52;97120.97;;;17.41;90.06
49515;BME280;35415;47.870;16.058;2023-06-14T08:44:20;97152.13;;;17.74;90.30
49515;BME280;35415;47.870;16.058;2023-06-14T08:46:57;97135.63;;;17.71;93.19
49515;BME280;35415;47.870;16.058;2023-06-14T08:49:33;97093.81;;;17.58;89.88
49515;BME280;35415;47.870;16.058;2023-06-14T08:52:05;97148.47;;;17.96;86.96
49515;BME280;35415;47.870;16.058;2023-06-14T08:54:39;97142.91;;;18.01;88.23
49515;BME280;35415;47.870;16.058;2023-06-14T08:57:19;97154.25;;;18.12;87.15
49515;BME280;35415;47.870;16.058;2023-06-14T08:59:55;97117.13;;;17.99;87.97
49515;BME280;35415;47.870;16.058;2023-06-14T09:02:27;97158.94;;;18.38;86.61
49515;BME280;35415;47.870;16.058;2023-06-14T09:04:58;97196.16;;;18.68;87.33
49515;BME280;35415;47.870;16.058;2023-06-14T09:07:38;97158.47;;;18.53;86.56
49515;BME280;35415;47.870;16.058;2023-06-14T09:10:15;97141.66;;;18.51;85.95
49515;BME280;35415;47.870;16.058;2023-06-14T09:12:48;97116.16;;;18.38;84.83
49515;BME280;35415;47.870;16.058;2023-06-14T09:15:16;97133.34;;;18.65;86.06
49515;BME280;35415;47.870;16.058;2023-06-14T09:17:46;97155.88;;;18.91;84.11
49515;BME280;35415;47.870;16.058;2023-06-14T09:20:21;97187.75;;;19.16;82.94
49515;BME280;35415;47.870;16.058;2023-06-14T09:22:53;97127.69;;;18.78;84.39
49515;BME280;35415;47.870;16.058;2023-06-14T09:25:24;97180.03;;;19.18;77.85
49515;BME280;35415;47.870;16.058;2023-06-14T09:27:53;97148.63;;;19.04;77.47
49515;BME280;35415;47.870;16.058;2023-06-14T09:30:30;97180.13;;;19.39;78.49
49515;BME280;35415;47.870;16.058;2023-06-14T09:33:00;97180.59;;;19.41;80.10
49515;BME280;35415;47.870;16.058;2023-06-14T09:35:27;97198.66;;;19.63;75.45
49515;BME280;35415;47.870;16.058;2023-06-14T09:37:56;97193.41;;;19.58;71.47
49515;BME280;35415;47.870;16.058;2023-06-14T09:40:26;97211.28;;;19.76;73.37
49515;BME280;35415;47.870;16.058;2023-06-14T09:42:54;97213.00;;;19.90;73.15
49515;BME280;35415;47.870;16.058;2023-06-14T09:45:23;97209.59;;;19.93;72.16
49515;BME280;35415;47.870;16.058;2023-06-14T09:47:50;97205.88;;;19.97;70.39
49515;BME280;35415;47.870;16.058;2023-06-14T09:50:17;97206.44;;;20.11;70.64
49515;BME280;35415;47.870;16.058;2023-06-14T09:52:46;97200.97;;;20.11;69.29
49515;BME280;35415;47.870;16.058;2023-06-14T09:55:16;97207.00;;;20.26;69.82
49515;BME280;35415;47.870;16.058;2023-06-14T09:57:47;97196.16;;;20.17;69.48
49515;BME280;35415;47.870;16.058;2023-06-14T10:00:17;97221.22;;;20.40;70.29
49515;BME280;35415;47.870;16.058;2023-06-14T10:02:49;97189.47;;;20.27;71.94
49515;BME280;35415;47.870;16.058;2023-06-14T10:05:19;97217.59;;;20.57;70.47
49515;BME280;35415;47.870;16.058;2023-06-14T10:07:52;97209.84;;;20.59;70.91
49515;BME280;35415;47.870;16.058;2023-06-14T10:10:19;97213.25;;;20.77;73.25
49515;BME280;35415;47.870;16.058;2023-06-14T10:12:49;97210.03;;;20.75;71.09
49515;BME280;35415;47.870;16.058;2023-06-14T10:15:20;97210.44;;;20.85;70.62
49515;BME280;35415;47.870;16.058;2023-06-14T10:17:53;97193.44;;;20.80;70.27
49515;BME280;35415;47.870;16.058;2023-06-14T10:20:28;97213.03;;;21.02;70.61
49515;BME280;35415;47.870;16.058;2023-06-14T10:23:07;97218.41;;;21.11;70.40
49515;BME280;35415;47.870;16.058;2023-06-14T10:25:35;97211.91;;;21.16;70.93
49515;BME280;35415;47.870;16.058;2023-06-14T10:28:14;97212.06;;;21.19;69.58
49515;BME280;35415;47.870;16.058;2023-06-14T10:31:04;97215.88;;;21.39;70.30
49515;BME280;35415;47.870;16.058;2023-06-14T10:33:31;97205.63;;;21.48;65.48
49515;BME280;35415;47.870;16.058;2023-06-14T10:36:25;97204.84;;;21.60;69.10
49515;BME280;35415;47.870;16.058;2023-06-14T10:39:01;97195.06;;;21.71;67.73
49515;BME280;35415;47.870;16.058;2023-06-14T10:41:34;97201.22;;;21.80;66.84
49515;BME280;35415;47.870;16.058;2023-06-14T10:44:31;97172.47;;;21.74;67.98
49515;BME280;35415;47.870;16.058;2023-06-14T10:46:59;97207.53;;;22.05;61.99
49515;BME280;35415;47.870;16.058;2023-06-14T10:49:38;97207.63;;;22.21;64.57
49515;BME280;35415;47.870;16.058;2023-06-14T10:52:11;97214.03;;;22.25;61.17
49515;BME280;35415;47.870;16.058;2023-06-14T10:55:03;97214.56;;;22.31;59.36
49515;BME280;35415;47.870;16.058;2023-06-14T10:57:32;97211.56;;;22.48;55.03
49515;BME280;35415;47.870;16.058;2023-06-14T11:00:03;97206.53;;;22.50;52.60
49515;BME280;35415;47.870;16.058;2023-06-14T11:03:27;97203.94;;;22.54;51.78
49515;BME280;35415;47.870;16.058;2023-06-14T11:05:58;97208.91;;;22.64;52.87
49515;BME280;35415;47.870;16.058;2023-06-14T11:11:32;97199.16;;;22.78;49.76
49515;BME280;35415;47.870;16.058;2023-06-14T11:14:00;97199.28;;;22.82;50.24
49515;BME280;35415;47.870;16.058;2023-06-14T11:16:30;97202.59;;;22.75;47.12
49515;BME280;35415;47.870;16.058;2023-06-14T11:19:00;97188.44;;;22.73;46.70
49515;BME280;35415;47.870;16.058;2023-06-14T11:21:28;97196.66;;;22.86;47.32
49515;BME280;35415;47.870;16.058;2023-06-14T11:23:58;97176.19;;;22.83;47.65
49515;BME280;35415;47.870;16.058;2023-06-14T11:26:26;97175.69;;;22.93;48.26
49515;BME280;35415;47.870;16.058;2023-06-14T11:28:58;97182.44;;;22.96;49.14
49515;BME280;35415;47.870;16.058;2023-06-14T11:31:26;97172.16;;;22.93;51.10
49515;BME280;35415;47.870;16.058;2023-06-14T11:33:56;97194.84;;;23.05;50.08
49515;BME280;35415;47.870;16.058;2023-06-14T11:36:26;97197.69;;;23.09;47.32
49515;BME280;35415;47.870;16.058;2023-06-14T11:38:58;97174.25;;;23.11;47.80
49515;BME280;35415;47.870;16.058;2023-06-14T11:41:32;97133.50;;;22.98;48.45
49515;BME280;35415;47.870;16.058;2023-06-14T11:44:00;97164.34;;;23.23;48.31
49515;BME280;35415;47.870;16.058;2023-06-14T11:46:28;97179.34;;;23.41;48.93
49515;BME280;35415;47.870;16.058;2023-06-14T11:48:57;97176.41;;;23.50;48.75
49515;BME280;35415;47.870;16.058;2023-06-14T11:51:28;97176.03;;;23.51;46.82
49515;BME280;35415;47.870;16.058;2023-06-14T11:53:57;97181.41;;;23.60;47.60
49515;BME280;35415;47.870;16.058;2023-06-14T11:56:25;97172.09;;;23.64;47.26
49515;BME280;35415;47.870;16.058;2023-06-14T11:58:52;97176.06;;;23.67;44.86
49515;BME280;35415;47.870;16.058;2023-06-14T12:01:22;97174.25;;;23.71;46.05
49515;BME280;35415;47.870;16.058;2023-06-14T12:03:49;97166.38;;;23.69;44.01
49515;BME280;35415;47.870;16.058;2023-06-14T12:06:26;97161.31;;;23.72;46.41
49515;BME280;35415;47.870;16.058;2023-06-14T12:09:00;97165.56;;;23.69;46.06
49515;BME280;35415;47.870;16.058;2023-06-14T12:11:34;97168.31;;;23.69;46.55
49515;BME280;35415;47.870;16.058;2023-06-14T12:14:03;97174.31;;;23.75;45.95
49515;BME280;35415;47.870;16.058;2023-06-14T12:16:32;97169.53;;;23.72;46.44
49515;BME280;35415;47.870;16.058;2023-06-14T12:19:18;97166.69;;;23.84;48.58
49515;BME280;35415;47.870;16.058;2023-06-14T12:22:11;97172.97;;;23.84;43.96
49515;BME280;35415;47.870;16.058;2023-06-14T12:24:46;97166.44;;;23.89;43.00
49515;BME280;35415;47.870;16.058;2023-06-14T12:27:39;97167.44;;;24.00;44.87
49515;BME280;35415;47.870;16.058;2023-06-14T12:30:30;97163.72;;;24.08;44.02
49515;BME280;35415;47.870;16.058;2023-06-14T12:32:58;97158.81;;;24.17;42.24
49515;BME280;35415;47.870;16.058;2023-06-14T12:35:29;97162.19;;;24.26;45.04
49515;BME280;35415;47.870;16.058;2023-06-14T12:37:58;97159.97;;;24.32;42.58
49515;BME280;35415;47.870;16.058;2023-06-14T12:40:44;97133.28;;;24.33;44.06
49515;BME280;35415;47.870;16.058;2023-06-14T12:43:12;97163.53;;;24.52;41.80
49515;BME280;35415;47.870;16.058;2023-06-14T12:45:39;97150.25;;;24.54;42.75
49515;BME280;35415;47.870;16.058;2023-06-14T12:48:29;97155.06;;;24.80;44.06
49515;BME280;35415;47.870;16.058;2023-06-14T12:50:56;97148.19;;;24.89;42.67
49515;BME280;35415;47.870;16.058;2023-06-14T12:53:25;97140.75;;;24.90;41.35
49515;BME280;35415;47.870;16.058;2023-06-14T12:55:53;97127.09;;;24.97;41.29
49515;BME280;35415;47.870;16.058;2023-06-14T12:58:22;97148.41;;;25.19;39.21
49515;BME280;35415;47.870;16.058;2023-06-14T13:00:50;97121.53;;;25.13;37.25
49515;BME280;35415;47.870;16.058;2023-06-14T13:03:18;97140.75;;;25.32;37.17
49515;BME280;35415;47.870;16.058;2023-06-14T13:05:50;97140.69;;;25.52;39.79
49515;BME280;35415;47.870;16.058;2023-06-14T13:13:56;97157.28;;;25.78;37.69